Centennial, WY

5:10 AM MST on March 04, 2015 (GMT -0700)
Laramie Regional | Change Station
CLOSE
Current Station
Airport
Location: Laramie,
Elevation: 7270 ft
Nearby Weather Stations

Elev 7270 ft 41.32 °N, 105.67 °W | Updated 17 minutes ago

Overcast
Overcast
-1 °F
Feels Like -11 °F
N
5
Wind Variable Wind from SSE

Today
High -- | Low -- °F
--% Chance of Precip.
Yesterday
High -- | Low -- °F
Precip. -- in
6:34 AM 5:58 PM
Waxing Gibbous, 99% visible
Pressure 30.18 in
Visibility 10.0 miles
Clouds Mostly Cloudy 4500 ft
Overcast 10000 ft
Windchill -11 °F
Dew Point -5 °F
Humidity 83%
Rainfall 0.00 in
Snow Depth Not available.
UV 0 out of 12
Pollen .60 out of 12
Air Quality Not available.
Flu Activity Not available.
METAR KLAR 041153Z AUTO 16004KT 10SM BKN045 OVC100 M18/M21 A2991 RMK AO2 SLP220 60000 70004 T11831206 11156 21183 53008 $

More Conditions Fewer Conditions

Pressure 30.18 in
Visibility 10.0 miles
Clouds Mostly Cloudy 4500 ft
Overcast 10000 ft
Windchill -11 °F
Dew Point -5 °F
Humidity 83%
Rainfall 0.00 in
Snow Depth Not available.
UV 0 out of 12
Pollen .60 out of 12
Air Quality Not available.
Flu Activity Not available.
METAR KLAR 041153Z AUTO 16004KT 10SM BKN045 OVC100 M18/M21 A2991 RMK AO2 SLP220 60000 70004 T11831206 11156 21183 53008 $

More Conditions Fewer Conditions

10-Day Weather Forecast

Almanac

Astronomy

Mar. 04, 2015 Rise Set
Actual Time
Civil Twilight
Nautical Twilight
Astronomical Twilight
Moon
Length of Visible Light
Length of Day
Tomorrow will be .
, % of the Moon is Illuminated

Today's Extremes

State Highs State Lows

Community

WunderPhotos

Upload Photos

1,802,437 photos uploaded!

WunderBlogs® & News

Nearby

Air Quality

  Air Quality AQ Index Pollutant
Not available.

Snow Depth

Station Depth Elevation

Earthquake Activity

City Distance Mag. Time & Date
Minimum magnitude displayed is 2.5.

Coastal Water Temperatures

Place Temperature

Nearby Weather Stations